Time;durP1;ratioP1;P1;durP2;ratioP2;P2;SDS_P1;SDS_P2;PMS_P1;PMS_P2;Temp;Humidity;BMP_temperature;BMP_pressure;BME280_temperature;BME280_humidity;BME280_pressure;Samples;Min_cycle;Max_cycle;Signal;HPM_P1;HPM_P2
2021/07/18 00:02:09;;;;;;;1999.90;999.90;;;21.10;99.90;;;;;;5072956;28;20455;-84
2021/07/18 00:04:35;;;;;;;1999.90;999.90;;;21.10;99.90;;;;;;5073900;28;20167;-84
2021/07/18 00:07:00;;;;;;;1999.90;999.90;;;21.00;99.90;;;;;;5074203;28;20218;-84
2021/07/18 00:09:26;;;;;;;1999.90;999.90;;;21.00;99.90;;;;;;5073837;28;20264;-84
2021/07/18 00:11:52;;;;;;;1999.90;999.90;;;20.90;99.90;;;;;;5073221;28;20194;-84
2021/07/18 00:14:18;;;;;;;1999.90;999.90;;;20.90;99.90;;;;;;5074075;28;20416;-84
2021/07/18 00:16:43;;;;;;;1999.90;999.90;;;21.00;99.90;;;;;;5073769;28;20542;-84
2021/07/18 00:19:09;;;;;;;1999.90;999.90;;;20.90;99.90;;;;;;5074007;28;20162;-84
2021/07/18 00:21:36;;;;;;;1999.90;999.90;;;21.00;99.90;;;;;;5073682;28;20171;-84
2021/07/18 00:24:02;;;;;;;1999.90;999.90;;;21.00;99.90;;;;;;5073625;28;20404;-84
2021/07/18 00:26:28;;;;;;;1999.90;999.90;;;20.90;99.90;;;;;;5073859;28;20847;-84
2021/07/18 00:28:54;;;;;;;1999.90;999.90;;;20.90;99.90;;;;;;5073529;28;20414;-84
2021/07/18 00:31:19;;;;;;;1999.90;999.90;;;21.00;99.90;;;;;;5073306;28;20441;-84
2021/07/18 00:33:45;;;;;;;1999.90;999.90;;;20.90;99.90;;;;;;5071928;28;20168;-84
2021/07/18 00:36:11;;;;;;;1999.90;999.90;;;20.90;99.90;;;;;;5073277;28;20179;-85
2021/07/18 00:38:36;;;;;;;1999.90;999.90;;;20.80;99.90;;;;;;5073390;28;20166;-85
2021/07/18 00:41:02;;;;;;;1999.90;999.90;;;20.80;99.90;;;;;;5073422;28;20643;-84
2021/07/18 00:43:28;;;;;;;1999.90;999.90;;;20.80;99.90;;;;;;5073535;28;20175;-84
2021/07/18 00:45:58;;;;;;;1999.90;999.90;;;20.70;99.90;;;;;;5073302;28;20473;-84
2021/07/18 00:48:28;;;;;;;1999.90;999.90;;;20.70;99.90;;;;;;5055589;28;20245;-85
2021/07/18 00:50:55;;;;;;;1999.90;999.90;;;20.70;99.90;;;;;;5073224;28;20520;-85
2021/07/18 00:53:21;;;;;;;1999.90;999.90;;;20.60;99.90;;;;;;5055907;28;20928;-85
2021/07/18 00:55:47;;;;;;;1999.90;999.90;;;20.60;99.90;;;;;;5073119;28;20429;-84
2021/07/18 00:58:13;;;;;;;1999.90;999.90;;;20.60;99.90;;;;;;5055206;28;20436;-84
2021/07/18 01:00:39;;;;;;;1999.90;999.90;;;20.60;99.90;;;;;;5073347;28;20400;-84
2021/07/18 01:03:05;;;;;;;1999.90;999.90;;;20.60;99.90;;;;;;5055253;28;20426;-84
2021/07/18 01:05:31;;;;;;;1999.90;999.90;;;20.60;99.90;;;;;;5073216;28;20406;-85
2021/07/18 01:07:57;;;;;;;1999.90;999.90;;;20.60;99.90;;;;;;5073938;28;20984;-84
2021/07/18 01:10:22;;;;;;;1999.90;999.90;;;20.50;99.90;;;;;;5073486;28;20452;-85
2021/07/18 01:12:48;;;;;;;1999.90;999.90;;;20.50;99.90;;;;;;5073789;28;20193;-84
2021/07/18 01:15:14;;;;;;;1999.90;999.90;;;20.50;99.90;;;;;;5054991;28;20216;-84
2021/07/18 01:17:40;;;;;;;1999.90;999.90;;;20.40;99.90;;;;;;5072089;28;20427;-85
2021/07/18 01:20:11;;;;;;;1999.90;999.90;;;20.40;99.90;;;;;;5072968;28;20410;-85
2021/07/18 01:22:37;;;;;;;1999.90;999.90;;;20.40;99.90;;;;;;5076399;28;20869;-85
2021/07/18 01:25:08;;;;;;;1999.90;999.90;;;20.40;99.90;;;;;;5077249;28;20411;-85
2021/07/18 01:27:39;;;;;;;1999.90;999.90;;;20.30;99.90;;;;;;5058878;28;20422;-85
2021/07/18 01:30:09;;;;;;;1999.90;999.90;;;20.30;99.90;;;;;;5077284;28;20437;-85
2021/07/18 01:32:36;;;;;;;1999.90;999.90;;;20.30;99.90;;;;;;5076828;28;20452;-85
2021/07/18 01:35:03;;;;;;;1999.90;999.90;;;20.30;99.90;;;;;;5076648;28;20407;-85
2021/07/18 01:37:29;;;;;;;1999.90;999.90;;;20.30;99.90;;;;;;5076641;28;20421;-85
2021/07/18 01:39:55;;;;;;;1999.90;999.90;;;20.30;99.90;;;;;;5075822;28;20739;-85
2021/07/18 01:42:23;;;;;;;1999.90;999.90;;;20.30;99.90;;;;;;5076527;28;20530;-84
2021/07/18 01:44:49;;;;;;;1999.90;999.90;;;20.20;99.90;;;;;;5076397;28;20162;-85
2021/07/18 01:47:15;;;;;;;1999.90;999.90;;;20.20;99.90;;;;;;5076423;28;20504;-85
2021/07/18 01:49:41;;;;;;;1999.90;999.90;;;20.20;99.90;;;;;;5058305;28;20291;-85
2021/07/18 01:52:07;;;;;;;1999.90;999.90;;;20.20;99.90;;;;;;5076560;28;20447;-85
2021/07/18 01:54:33;;;;;;;1999.90;999.90;;;20.10;99.90;;;;;;5076252;28;20406;-85
2021/07/18 01:57:17;;;;;;;1999.90;999.90;;;20.10;99.90;;;;;;5074907;28;20483;-84
2021/07/18 01:59:44;;;;;;;1999.90;999.90;;;20.10;99.90;;;;;;5076740;28;20620;-85
2021/07/18 02:02:10;;;;;;;1999.90;999.90;;;20.10;99.90;;;;;;5076104;28;20402;-85
2021/07/18 02:04:35;;;;;;;1999.90;999.90;;;20.10;99.90;;;;;;5076110;28;20774;-85
2021/07/18 02:07:05;;;;;;;1999.90;999.90;;;20.00;99.90;;;;;;5057916;28;20242;-85
2021/07/18 02:09:31;;;;;;;1999.90;999.90;;;20.00;99.90;;;;;;5076205;28;20172;-85
2021/07/18 02:11:57;;;;;;;1999.90;999.90;;;20.00;99.90;;;;;;5075855;28;20461;-85
2021/07/18 02:14:22;;;;;;;1999.90;999.90;;;20.00;99.90;;;;;;5075951;28;20199;-85
2021/07/18 02:16:52;;;;;;;1999.90;999.90;;;19.90;99.90;;;;;;5074590;28;20506;-85
2021/07/18 02:19:18;;;;;;;1999.90;999.90;;;19.90;99.90;;;;;;5075137;28;20688;-85
2021/07/18 02:21:44;;;;;;;1999.90;999.90;;;19.90;99.90;;;;;;5075778;28;20548;-85
2021/07/18 02:24:10;;;;;;;1999.90;999.90;;;19.90;99.90;;;;;;5057863;28;20194;-85
2021/07/18 02:26:37;;;;;;;1999.90;999.90;;;19.90;99.90;;;;;;5074348;28;20430;-85
2021/07/18 02:29:04;;;;;;;1999.90;999.90;;;19.80;99.90;;;;;;5075634;28;20440;-85
2021/07/18 02:31:29;;;;;;;1999.90;999.90;;;19.80;99.90;;;;;;5076092;28;20453;-85
2021/07/18 02:33:55;;;;;;;1999.90;999.90;;;19.80;99.90;;;;;;5074867;28;20403;-85
2021/07/18 02:36:21;;;;;;;1999.90;999.90;;;19.80;99.90;;;;;;5075459;28;20187;-85
2021/07/18 02:38:47;;;;;;;1999.90;999.90;;;19.80;99.90;;;;;;5074193;28;20172;-85
2021/07/18 02:41:13;;;;;;;1999.90;999.90;;;19.70;99.90;;;;;;5075424;28;20169;-85
2021/07/18 02:43:40;;;;;;;1999.90;999.90;;;19.70;99.90;;;;;;5075364;28;20174;-85
2021/07/18 02:46:06;;;;;;;1999.90;999.90;;;19.70;99.90;;;;;;5057346;28;20488;-85
2021/07/18 02:48:34;;;;;;;1999.90;999.90;;;19.70;99.90;;;;;;5074272;28;20414;-85
2021/07/18 02:51:00;;;;;;;1999.90;999.90;;;19.70;99.90;;;;;;5075403;28;20810;-85
2021/07/18 02:53:26;;;;;;;1999.90;999.90;;;19.60;99.90;;;;;;5075312;28;20415;-85
2021/07/18 02:55:51;;;;;;;1999.90;999.90;;;19.60;99.90;;;;;;5075089;28;20218;-85
2021/07/18 02:58:17;;;;;;;1999.90;999.90;;;19.60;99.90;;;;;;5075268;28;20168;-85
2021/07/18 03:00:42;;;;;;;1999.90;999.90;;;19.60;99.90;;;;;;5075196;28;20177;-85
2021/07/18 03:03:08;;;;;;;1999.90;999.90;;;19.60;99.90;;;;;;5074247;28;20627;-85
2021/07/18 03:05:34;;;;;;;1999.90;999.90;;;19.60;99.90;;;;;;5075445;28;20657;-85
2021/07/18 03:08:00;;;;;;;1999.90;999.90;;;19.60;99.90;;;;;;5260250;22;20225;-86
2021/07/18 03:10:25;;;;;;;1999.90;999.90;;;19.50;99.90;;;;;;5076820;28;20195;-87
2021/07/18 03:12:51;;;;;;;1999.90;999.90;;;19.50;99.90;;;;;;5095302;28;20210;-87
2021/07/18 03:15:17;;;;;;;1999.90;999.90;;;19.50;99.90;;;;;;5095576;28;20156;-87
2021/07/18 03:17:46;;;;;;;1999.90;999.90;;;19.50;99.90;;;;;;5093955;28;20190;-87
2021/07/18 03:20:14;;;;;;;1999.90;999.90;;;19.40;99.90;;;;;;5095146;28;20405;-87
2021/07/18 03:22:40;;;;;;;1999.90;999.90;;;19.40;99.90;;;;;;5095062;28;20405;-87
2021/07/18 03:25:08;;;;;;;1999.90;999.90;;;19.40;99.90;;;;;;5076950;28;20917;-87
2021/07/18 03:27:34;;;;;;;1999.90;999.90;;;19.40;99.90;;;;;;5094955;28;20424;-86
2021/07/18 03:30:00;;;;;;;1999.90;999.90;;;19.30;99.90;;;;;;5094839;28;20444;-87
2021/07/18 03:32:28;;;;;;;1999.90;999.90;;;19.30;99.90;;;;;;5095167;28;20398;-87
2021/07/18 03:34:54;;;;;;;1999.90;999.90;;;19.30;99.90;;;;;;5095121;28;20160;-87
2021/07/18 03:37:20;;;;;;;1999.90;999.90;;;19.30;99.90;;;;;;5093851;28;20425;-87
2021/07/18 03:39:46;;;;;;;1999.90;999.90;;;19.30;99.90;;;;;;5077004;28;20172;-87
2021/07/18 03:42:11;;;;;;;1999.90;999.90;;;19.30;99.90;;;;;;5095311;28;20399;-86
2021/07/18 03:44:40;;;;;;;1999.90;999.90;;;19.30;99.90;;;;;;5093310;28;20519;-87
2021/07/18 03:47:12;;;;;;;1999.90;999.90;;;19.30;99.90;;;;;;5095001;28;20180;-86
2021/07/18 03:49:38;;;;;;;1999.90;999.90;;;19.20;99.90;;;;;;5095440;28;20374;-87
2021/07/18 03:52:05;;;;;;;1999.90;999.90;;;19.20;99.90;;;;;;5095174;28;20404;-87
2021/07/18 03:54:30;;;;;;;1999.90;999.90;;;19.20;99.90;;;;;;5076835;28;20159;-87
2021/07/18 03:56:57;;;;;;;1999.90;999.90;;;19.30;99.90;;;;;;5093544;28;20978;-86
2021/07/18 03:59:29;;;;;;;1999.90;999.90;;;19.20;99.90;;;;;;5094774;28;20641;-87
2021/07/18 04:01:54;;;;;;;1999.90;999.90;;;19.30;99.90;;;;;;5076909;28;20443;-86
2021/07/18 04:04:20;;;;;;;1999.90;999.90;;;19.30;99.90;;;;;;5095020;28;20896;-86
2021/07/18 04:06:53;;;;;;;1999.90;999.90;;;19.20;99.90;;;;;;5185127;22;20947;-86
2021/07/18 04:09:19;;;;;;;1999.90;999.90;;;19.30;99.90;;;;;;5111753;28;20409;-86
2021/07/18 04:11:44;;;;;;;1999.90;999.90;;;19.30;99.90;;;;;;5093846;28;20411;-86
2021/07/18 04:14:10;;;;;;;1999.90;999.90;;;19.20;99.90;;;;;;5111648;28;20172;-86
2021/07/18 04:16:36;;;;;;;1999.90;999.90;;;19.20;99.90;;;;;;5122176;28;20700;-86
2021/07/18 04:19:01;;;;;;;1999.90;999.90;;;19.20;99.90;;;;;;5113556;28;20706;-86
2021/07/18 04:21:27;;;;;;;1999.90;999.90;;;19.20;99.90;;;;;;5132085;28;20154;-86
2021/07/18 04:23:53;;;;;;;1999.90;999.90;;;19.10;99.90;;;;;;5096897;28;20169;-86
2021/07/18 04:26:18;;;;;;;1999.90;999.90;;;19.10;99.90;;;;;;5132015;28;20189;-86
2021/07/18 04:28:52;;;;;;;1999.90;999.90;;;19.10;99.90;;;;;;5131735;28;20159;-86
2021/07/18 04:31:18;;;;;;;1999.90;999.90;;;19.10;99.90;;;;;;5131870;28;20154;-86
2021/07/18 04:33:44;;;;;;;1999.90;999.90;;;19.10;99.90;;;;;;5131694;28;20453;-86
2021/07/18 04:36:10;;;;;;;1999.90;999.90;;;19.10;99.90;;;;;;5131715;28;20236;-86
2021/07/18 04:38:39;;;;;;;1999.90;999.90;;;19.10;99.90;;;;;;5131636;28;20159;-86
2021/07/18 04:41:07;;;;;;;1999.90;999.90;;;19.00;99.90;;;;;;5113598;28;20418;-86
2021/07/18 04:43:33;;;;;;;1999.90;999.90;;;19.10;99.90;;;;;;5113302;28;20403;-86
2021/07/18 04:46:07;;;;;;;1999.90;999.90;;;19.10;99.90;;;;;;5112899;28;20504;-86
2021/07/18 04:48:32;;;;;;;1999.90;999.90;;;19.10;99.90;;;;;;5113322;28;20180;-85
2021/07/18 04:50:59;;;;;;;1999.90;999.90;;;19.10;99.90;;;;;;5132341;28;20482;-85
2021/07/18 04:53:24;;;;;;;1999.90;999.90;;;19.30;99.90;;;;;;5132150;28;20817;-86
2021/07/18 04:55:50;;;;;;;1999.90;999.90;;;19.40;99.90;;;;;;5132204;28;20427;-86
2021/07/18 04:58:16;;;;;;;1999.90;999.90;;;19.50;99.90;;;;;;5132810;28;20167;-85
2021/07/18 05:00:55;;;;;;;1999.90;999.90;;;19.60;99.90;;;;;;5114760;28;20185;-85
2021/07/18 05:03:21;;;;;;;1999.90;999.90;;;19.80;99.90;;;;;;5133249;28;20477;-86
2021/07/18 05:05:47;;;;;;;1999.90;999.90;;;19.90;99.90;;;;;;5132384;28;20873;-85
2021/07/18 05:08:26;;;;;;;1999.90;999.90;;;20.00;99.90;;;;;;5115010;28;20191;-85
2021/07/18 05:10:52;;;;;;;1999.90;999.90;;;20.00;99.90;;;;;;5114346;28;20397;-86
2021/07/18 05:13:18;;;;;;;1999.90;999.90;;;20.00;99.90;;;;;;5133696;28;20400;-85
2021/07/18 05:15:44;;;;;;;1999.90;999.90;;;20.00;99.90;;;;;;5115984;28;20420;-85
2021/07/18 05:18:20;;;;;;;1999.90;999.90;;;20.00;99.90;;;;;;5120233;28;20168;-85
2021/07/18 05:20:51;;;;;;;1999.90;999.90;;;20.10;99.90;;;;;;5119658;28;20143;-85
2021/07/18 05:23:20;;;;;;;1999.90;999.90;;;20.10;99.90;;;;;;5102094;28;20393;-86
2021/07/18 05:25:49;;;;;;;1999.90;999.90;;;20.00;99.90;;;;;;5103380;28;20524;-86
2021/07/18 05:28:14;;;;;;;1999.90;999.90;;;19.90;99.90;;;;;;5122307;28;20483;-86
2021/07/18 05:30:43;;;;;;;1999.90;999.90;;;19.80;99.90;;;;;;5120499;28;20482;-86
2021/07/18 05:33:12;;;;;;;1999.90;999.90;;;19.70;99.90;;;;;;5121634;28;20169;-86
2021/07/18 05:35:38;;;;;;;1999.90;999.90;;;19.70;99.90;;;;;;5101862;28;20407;-85
2021/07/18 05:38:09;;;;;;;1999.90;999.90;;;19.70;99.90;;;;;;5101194;28;20775;-86
2021/07/18 05:40:38;;;;;;;1999.90;999.90;;;19.60;99.90;;;;;;5118855;28;20496;-86
2021/07/18 05:43:04;;;;;;;1999.90;999.90;;;19.60;99.90;;;;;;5100293;28;20410;-86
2021/07/18 05:45:32;;;;;;;1999.90;999.90;;;19.60;99.90;;;;;;5099539;28;20468;-86
2021/07/18 05:48:01;;;;;;;1999.90;999.90;;;19.50;99.90;;;;;;5116603;28;20630;-86
2021/07/18 05:50:30;;;;;;;1999.90;999.90;;;19.50;99.90;;;;;;5098729;28;20977;-86
2021/07/18 05:52:56;;;;;;;1999.90;999.90;;;19.50;99.90;;;;;;5116388;28;20401;-86
2021/07/18 05:55:23;;;;;;;1999.90;999.90;;;19.60;99.90;;;;;;5116662;28;20458;-86
2021/07/18 05:57:53;;;;;;;1999.90;999.90;;;19.50;99.90;;;;;;5116864;28;20256;-86
2021/07/18 06:00:19;;;;;;;1999.90;999.90;;;19.60;99.90;;;;;;5116333;28;20448;-85
2021/07/18 06:02:47;;;;;;;1999.90;999.90;;;19.50;99.90;;;;;;5116504;28;20403;-85
2021/07/18 06:05:16;;;;;;;1999.90;999.90;;;19.60;99.90;;;;;;5099179;28;20788;-86
2021/07/18 06:07:42;;;;;;;1999.90;999.90;;;19.50;99.90;;;;;;5097999;28;20540;-86
2021/07/18 06:10:11;;;;;;;1999.90;999.90;;;19.50;99.90;;;;;;5097715;28;20503;-86
2021/07/18 06:12:37;;;;;;;1999.90;999.90;;;19.50;99.90;;;;;;5116552;28;20216;-86
2021/07/18 06:15:09;;;;;;;1999.90;999.90;;;19.40;99.90;;;;;;5099431;28;20891;-86
2021/07/18 06:17:41;;;;;;;1999.90;999.90;;;19.40;99.90;;;;;;5117773;28;20221;-85
2021/07/18 06:20:19;;;;;;;1999.90;999.90;;;19.30;99.90;;;;;;5098058;28;20409;-86
2021/07/18 06:22:45;;;;;;;1999.90;999.90;;;19.40;99.90;;;;;;5097947;28;20741;-85
2021/07/18 06:25:12;;;;;;;1999.90;999.90;;;19.30;99.90;;;;;;5098004;28;20452;-86
2021/07/18 06:27:41;;;;;;;1999.90;999.90;;;19.30;99.90;;;;;;5116440;28;20420;-86
2021/07/18 06:30:16;;;;;;;1999.90;999.90;;;19.40;99.90;;;;;;5098054;28;20413;-86
2021/07/18 06:32:45;;;;;;;1999.90;999.90;;;19.40;99.90;;;;;;5098526;28;20400;-87
2021/07/18 06:35:12;;;;;;;1999.90;999.90;;;19.40;99.90;;;;;;5097559;28;20484;-86
2021/07/18 06:37:53;;;;;;;1999.90;999.90;;;19.40;99.90;;;;;;5097322;28;20420;-85
2021/07/18 06:40:21;;;;;;;1999.90;999.90;;;19.50;99.90;;;;;;5099122;28;20408;-86
2021/07/18 06:42:47;;;;;;;1999.90;999.90;;;19.50;99.90;;;;;;5097610;28;20413;-86
2021/07/18 06:45:13;;;;;;;1999.90;999.90;;;19.50;99.90;;;;;;5117180;28;20443;-85
2021/07/18 06:47:40;;;;;;;1999.90;999.90;;;19.60;99.90;;;;;;5098359;28;20236;-86
2021/07/18 06:50:06;;;;;;;1999.90;999.90;;;19.70;99.90;;;;;;5116246;28;20392;-85
2021/07/18 06:52:32;;;;;;;1999.90;999.90;;;19.70;99.90;;;;;;5116564;28;20756;-86
2021/07/18 06:54:58;;;;;;;1999.90;999.90;;;19.70;99.90;;;;;;5099834;28;20398;-86
2021/07/18 06:57:24;;;;;;;1999.90;999.90;;;19.80;99.90;;;;;;5116676;28;20639;-86
2021/07/18 06:59:50;;;;;;;1999.90;999.90;;;19.80;99.90;;;;;;5116105;28;20165;-85
2021/07/18 07:02:16;;;;;;;1999.90;999.90;;;19.70;99.90;;;;;;5116145;28;20797;-86
2021/07/18 07:04:44;;;;;;;1999.90;999.90;;;19.70;99.90;;;;;;5117460;28;20166;-85
2021/07/18 07:07:10;;;;;;;1999.90;999.90;;;19.90;99.90;;;;;;5116489;28;20452;-86
2021/07/18 07:09:36;;;;;;;1999.90;999.90;;;20.00;99.90;;;;;;5098422;28;20457;-86
2021/07/18 07:12:05;;;;;;;1999.90;999.90;;;20.00;99.90;;;;;;5116187;28;20159;-86
2021/07/18 07:14:31;;;;;;;1999.90;999.90;;;20.10;99.90;;;;;;5099512;28;20405;-85
2021/07/18 07:16:57;;;;;;;1999.90;999.90;;;20.10;99.90;;;;;;5099806;28;20424;-86
2021/07/18 07:19:22;;;;;;;1999.90;999.90;;;20.20;99.90;;;;;;5118485;28;20237;-86
2021/07/18 07:21:48;;;;;;;1999.90;999.90;;;20.20;99.90;;;;;;5116850;28;20155;-86
2021/07/18 07:24:14;;;;;;;1999.90;999.90;;;20.10;99.90;;;;;;5117644;28;20637;-86
2021/07/18 07:26:40;;;;;;;1999.90;999.90;;;20.10;99.90;;;;;;5115375;28;20220;-88
2021/07/18 07:29:06;;;;;;;1999.90;999.90;;;20.20;99.90;;;;;;5114686;28;20482;-87
2021/07/18 07:31:34;;;;;;;1999.90;999.90;;;20.30;99.90;;;;;;5115335;28;20399;-88
2021/07/18 07:34:00;;;;;;;1999.90;999.90;;;20.30;99.90;;;;;;5115431;28;20216;-87
2021/07/18 07:36:43;;;;;;;1999.90;999.90;;;20.30;99.90;;;;;;5097201;28;20935;-87
2021/07/18 07:39:50;;;;;;;1999.90;999.90;;;20.20;99.90;;;;;;5096635;28;20701;-87
2021/07/18 07:42:19;;;;;;;1999.90;999.90;;;20.20;99.90;;;;;;5074466;28;20436;-87
2021/07/18 07:44:48;;;;;;;1999.90;999.90;;;20.20;99.90;;;;;;5096651;28;20972;-87
2021/07/18 07:47:24;;;;;;;1999.90;999.90;;;20.20;99.90;;;;;;5096609;28;20431;-88
2021/07/18 07:49:53;;;;;;;1999.90;999.90;;;20.20;99.90;;;;;;5115222;28;20515;-89
2021/07/18 07:52:19;;;;;;;1999.90;999.90;;;20.30;99.90;;;;;;5096927;28;20412;-88
2021/07/18 07:54:53;;;;;;;1999.90;999.90;;;20.20;99.90;;;;;;5114688;28;21049;-87
2021/07/18 07:57:30;;;;;;;1999.90;999.90;;;20.30;99.90;;;;;;5096072;28;20434;-87
2021/07/18 08:00:05;;;;;;;1999.90;999.90;;;20.40;99.90;;;;;;5096595;28;20471;-87
2021/07/18 08:02:31;;;;;;;1999.90;999.90;;;20.50;99.90;;;;;;5097061;28;20436;-88
2021/07/18 08:05:08;;;;;;;1999.90;999.90;;;20.50;99.90;;;;;;5096895;28;20440;-88
2021/07/18 08:07:41;;;;;;;1999.90;999.90;;;20.50;99.90;;;;;;5114971;28;20438;-88
2021/07/18 08:10:17;;;;;;;1999.90;999.90;;;20.60;99.90;;;;;;5096359;28;20411;-87
2021/07/18 08:12:44;;;;;;;1999.90;999.90;;;20.60;99.90;;;;;;5114477;28;20406;-87
2021/07/18 08:15:23;;;;;;;1999.90;999.90;;;20.60;99.90;;;;;;5096518;28;20410;-87
2021/07/18 08:17:50;;;;;;;1999.90;999.90;;;20.70;99.90;;;;;;5095374;28;20967;-88
2021/07/18 08:20:19;;;;;;;1999.90;999.90;;;20.80;99.90;;;;;;5116178;28;20827;-87
2021/07/18 08:22:49;;;;;;;1999.90;999.90;;;20.70;99.90;;;;;;5097145;28;20493;-87
2021/07/18 08:25:26;;;;;;;1999.90;999.90;;;20.80;99.90;;;;;;5097201;28;20443;-87
2021/07/18 08:28:13;;;;;;;1999.90;999.90;;;20.90;99.90;;;;;;5115753;28;20381;-88
2021/07/18 08:30:52;;;;;;;;;;;;;;;;;;;;;
2021/07/18 08:33:33;;;;;;;1999.90;999.90;;;21.00;99.90;;;;;;5114987;28;20397;-88
2021/07/18 08:36:05;;;;;;;1999.90;999.90;;;21.00;99.90;;;;;;5096209;28;20498;-89
2021/07/18 08:38:39;;;;;;;1999.90;999.90;;;21.00;99.90;;;;;;5097567;28;20400;-89
2021/07/18 08:41:07;;;;;;;1999.90;999.90;;;21.00;99.90;;;;;;5097591;28;20411;-89
2021/07/18 08:43:33;;;;;;;1999.90;999.90;;;21.10;99.90;;;;;;5096600;28;20420;-88
2021/07/18 08:45:59;;;;;;;1999.90;999.90;;;21.20;99.90;;;;;;5116259;28;20813;-88
2021/07/18 08:48:36;;;;;;;1999.90;999.90;;;21.10;99.90;;;;;;5115231;28;20161;-89
2021/07/18 08:51:52;;;;;;;1999.90;999.90;;;21.20;99.90;;;;;;5114268;28;20377;-89
2021/07/18 08:54:25;;;;;;;1999.90;999.90;;;21.20;99.90;;;;;;5076550;28;20737;-89
2021/07/18 08:56:52;;;;;;;1999.90;999.90;;;21.30;99.90;;;;;;5117677;28;20474;-88
2021/07/18 08:59:18;;;;;;;1999.90;999.90;;;21.40;99.90;;;;;;5100285;28;20422;-88
2021/07/18 09:01:47;;;;;;;1999.90;999.90;;;21.40;99.90;;;;;;5099769;28;20416;-90
2021/07/18 09:04:24;;;;;;;1999.90;999.90;;;21.50;99.90;;;;;;5118622;28;20400;-89
2021/07/18 09:09:24;;;;;;;1999.90;999.90;;;21.60;99.90;;;;;;5041143;28;20856;-85
2021/07/18 09:11:59;;;;;;;1999.90;999.90;;;21.60;99.90;;;;;;5042924;28;20427;-86
2021/07/18 09:14:30;;;;;;;1999.90;999.90;;;21.70;99.90;;;;;;5059601;28;20475;-85
2021/07/18 09:16:59;;;;;;;1999.90;999.90;;;21.80;99.90;;;;;;5055007;28;20415;-85
2021/07/18 09:19:35;;;;;;;1999.90;999.90;;;22.00;99.90;;;;;;5062675;28;20801;-85
2021/07/18 09:22:39;;;;;;;1999.90;999.90;;;22.10;99.90;;;;;;5061374;28;20407;-85
2021/07/18 09:25:39;;;;;;;1999.90;999.90;;;22.10;99.90;;;;;;5058949;28;20446;-85
2021/07/18 09:28:22;;;;;;;1999.90;999.90;;;22.20;99.90;;;;;;5055498;28;20417;-85
2021/07/18 09:31:31;;;;;;;1999.90;999.90;;;22.20;99.90;;;;;;5059048;28;20402;-86
2021/07/18 09:34:23;;;;;;;1999.90;999.90;;;22.30;99.90;;;;;;5059959;28;20907;-85
2021/07/18 09:40:54;;;;;;;1999.90;999.90;;;22.40;99.90;;;;;;5053583;28;20409;-85
2021/07/18 09:43:23;;;;;;;1999.90;999.90;;;22.60;99.90;;;;;;5024919;28;20438;-85
2021/07/18 09:46:29;;;;;;;1999.90;999.90;;;22.70;99.90;;;;;;5122119;22;20437;-85
2021/07/18 09:49:58;;;;;;;1999.90;999.90;;;22.90;99.90;;;;;;5089587;28;20512;-85
2021/07/18 09:52:28;;;;;;;1999.90;999.90;;;23.00;99.90;;;;;;5099490;28;20426;-84
2021/07/18 09:55:35;;;;;;;1999.90;999.90;;;23.20;99.90;;;;;;5099590;28;20436;-84
2021/07/18 09:58:27;;;;;;;1999.90;999.90;;;23.30;99.90;;;;;;5000746;28;20987;-85
2021/07/18 10:00:57;;;;;;;1999.90;999.90;;;23.50;99.90;;;;;;5078843;28;20418;-85
2021/07/18 10:03:29;;;;;;;1999.90;999.90;;;23.50;99.90;;;;;;5061444;28;20505;-85
2021/07/18 10:06:21;;;;;;;1999.90;999.90;;;23.60;99.90;;;;;;5059739;28;20466;-85
2021/07/18 10:09:27;;;;;;;1999.90;999.90;;;23.70;99.90;;;;;;5059237;28;20786;-85
2021/07/18 10:12:54;;;;;;;1999.90;999.90;;;23.90;99.90;;;;;;5005557;28;20751;-85
2021/07/18 10:15:29;;;;;;;1999.90;999.90;;;24.00;99.90;;;;;;5076968;28;20418;-86
2021/07/18 10:18:06;;;;;;;1999.90;999.90;;;24.20;99.90;;;;;;5055186;28;20403;-85
2021/07/18 10:24:59;;;;;;;;;;;;;;;;;;;;;
2021/07/18 10:28:15;;;;;;;1999.90;999.90;;;24.80;99.90;;;;;;5058976;28;20441;-85
2021/07/18 10:31:35;;;;;;;1999.90;999.90;;;24.80;99.00;;;;;;4977863;28;20406;-86
2021/07/18 10:34:25;;;;;;;1999.90;999.90;;;24.70;98.50;;;;;;4919479;29;20430;-85
2021/07/18 10:37:15;;;;;;;1999.90;999.90;;;24.80;98.00;;;;;;4904695;29;21101;-87
2021/07/18 10:40:23;;;;;;;1999.90;999.90;;;24.90;96.70;;;;;;5021250;28;20414;-85
2021/07/18 10:42:57;;;;;;;1999.90;999.90;;;25.20;96.10;;;;;;5058657;28;20410;-85
2021/07/18 10:45:49;;;;;;;1999.90;999.90;;;25.50;95.60;;;;;;5060117;28;20458;-85
2021/07/18 10:49:13;;;;;;;1999.90;999.90;;;25.50;92.20;;;;;;5058529;28;20494;-85
2021/07/18 10:52:13;;;;;;;1999.90;999.90;;;25.70;92.30;;;;;;5050660;28;20918;-85
2021/07/18 10:55:08;;;;;;;1999.90;999.90;;;25.90;89.20;;;;;;5055914;28;20461;-85
2021/07/18 10:57:46;;;;;;;1999.90;999.90;;;26.00;91.50;;;;;;5053210;28;20447;-84
2021/07/18 11:00:49;;;;;;;1999.90;999.90;;;26.00;82.10;;;;;;5054242;28;20494;-85
2021/07/18 11:06:46;;;;;;;1999.90;999.90;;;26.40;80.30;;;;;;5063822;28;20493;-84
2021/07/18 11:09:44;;;;;;;1999.90;999.90;;;26.40;79.20;;;;;;5060609;28;20512;-84
2021/07/18 11:12:46;;;;;;;1999.90;999.90;;;26.40;76.80;;;;;;5078161;28;20468;-84
2021/07/18 11:15:36;;;;;;;1999.90;999.90;;;26.40;76.30;;;;;;5058191;28;21053;-84
2021/07/18 11:18:05;;;;;;;1999.90;999.90;;;26.60;73.10;;;;;;5077589;28;20383;-84
2021/07/18 11:20:53;;;;;;;1999.90;999.90;;;26.30;62.50;;;;;;5059722;28;20417;-85
2021/07/18 11:23:42;;;;;;;1999.90;999.90;;;26.20;65.00;;;;;;5060132;28;20401;-85
2021/07/18 11:26:18;;;;;;;1999.90;999.90;;;26.20;80.60;;;;;;5058648;28;20468;-85
2021/07/18 11:28:49;;;;;;;1999.90;999.90;;;26.50;71.50;;;;;;5059937;28;20413;-84
2021/07/18 11:31:18;;;;;;;1999.90;999.90;;;26.80;73.80;;;;;;5076855;28;20805;-84
2021/07/18 11:34:23;;;;;;;1999.90;999.90;;;26.90;64.10;;;;;;5076712;28;20806;-85
2021/07/18 11:36:52;;;;;;;1999.90;999.90;;;26.90;49.00;;;;;;5062837;28;20483;-85
2021/07/18 11:39:23;;;;;;;1999.90;999.90;;;27.00;49.10;;;;;;5083936;28;20405;-85
2021/07/18 11:41:52;;;;;;;1999.90;999.90;;;27.10;43.30;;;;;;5082391;28;20418;-86
2021/07/18 11:44:25;;;;;;;1999.90;999.90;;;27.10;37.00;;;;;;5063675;28;20429;-85
2021/07/18 11:46:54;;;;;;;1999.90;999.90;;;27.00;38.90;;;;;;5059762;28;20568;-85
2021/07/18 11:49:32;;;;;;;1999.90;999.90;;;27.20;33.70;;;;;;5061030;28;20437;-85
2021/07/18 11:52:00;;;;;;;1999.90;999.90;;;27.10;36.90;;;;;;5062098;28;20406;-86
2021/07/18 11:54:26;;;;;;;1999.90;999.90;;;27.30;39.90;;;;;;5059966;28;20409;-86
2021/07/18 11:57:50;;;;;;;1999.90;999.90;;;27.40;31.70;;;;;;5078768;28;20426;-86
2021/07/18 12:00:50;;;;;;;1999.90;999.90;;;27.60;35.60;;;;;;5053998;28;20179;-87
2021/07/18 12:11:34;;;;;;;;;;;;;;;;;;;;;
2021/07/18 12:26:06;;;;;;;1999.90;999.90;;;27.80;23.40;;;;;;4152206;22;20475;-86
2021/07/18 12:29:33;;;;;;;1999.90;999.90;;;27.80;19.50;;;;;;5038518;28;20432;-85
2021/07/18 12:32:09;;;;;;;1999.90;999.90;;;27.80;20.20;;;;;;5040946;28;20411;-85
2021/07/18 12:34:58;;;;;;;1999.90;999.90;;;28.00;24.10;;;;;;5041758;28;20450;-83
2021/07/18 12:38:06;;;;;;;1999.90;999.90;;;28.00;21.40;;;;;;5042775;28;20434;-84
2021/07/18 12:40:37;;;;;;;1999.90;999.90;;;28.00;21.60;;;;;;5040670;28;20415;-82
2021/07/18 12:43:21;;;;;;;1999.90;999.90;;;27.90;21.90;;;;;;5048365;28;20400;-82
2021/07/18 12:46:04;;;;;;;;;;;;;;;;;;;;;
2021/07/18 12:49:28;;;;;;;1999.90;999.90;;;27.80;19.70;;;;;;5044362;28;20487;-82
2021/07/18 12:52:20;;;;;;;1999.90;999.90;;;28.00;22.10;;;;;;4992068;28;20394;-82
2021/07/18 12:55:26;;;;;;;1999.90;999.90;;;28.40;25.70;;;;;;5046340;28;20404;-83
2021/07/18 12:58:18;;;;;;;1999.90;999.90;;;28.20;19.60;;;;;;5065080;28;20408;-82
2021/07/18 13:01:18;;;;;;;1999.90;999.90;;;28.00;24.00;;;;;;5043747;28;20495;-83
2021/07/18 13:03:52;;;;;;;1999.90;999.90;;;28.20;25.10;;;;;;5040437;28;20384;-84
2021/07/18 13:06:59;;;;;;;1999.90;999.90;;;28.50;22.20;;;;;;5040656;28;20452;-83
2021/07/18 13:09:25;;;;;;;1999.90;999.90;;;28.50;21.90;;;;;;4963097;28;20407;-84